Terminal Aerodrome Forecast
Issued by NWS

Home | Current Version | Previous Version | Graphics & Text | Print | Product List | Glossary On
Versions: 1 2 3 4 5 6 7 8 9 10 11 12 13
083
FTUS43 KBIS 292322
TAFMOT
TAF
KMOT 292322Z 3000/3024 14010KT P6SM SKC
     FM300400 14008KT P6SM FEW250 WS020/17035KT
     FM301500 15013G22KT P6SM BKN150=

USA.gov is the U.S. government's official web portal to all federal, state and local government web resources and services.